sensor_id;sensor_type;location;lat;lon;timestamp;pressure;altitude;pressure_sealevel;temperature;humidity
69221;BME280;56331;51.992;20.910;2022-09-29T00:00:53;98634.88;;;22.25;45.39
69221;BME280;56331;51.992;20.910;2022-09-29T00:03:22;98630.72;;;22.25;45.38
69221;BME280;56331;51.992;20.910;2022-09-29T00:05:50;98626.36;;;22.24;45.42
69221;BME280;56331;51.992;20.910;2022-09-29T00:08:18;98627.75;;;22.24;45.40
69221;BME280;56331;51.992;20.910;2022-09-29T00:10:45;98633.30;;;22.24;45.43
69221;BME280;56331;51.992;20.910;2022-09-29T00:13:12;98631.91;;;22.24;45.46
69221;BME280;56331;51.992;20.910;2022-09-29T00:15:39;98635.06;;;22.22;45.50
69221;BME280;56331;51.992;20.910;2022-09-29T00:18:06;98639.81;;;22.22;45.50
69221;BME280;56331;51.992;20.910;2022-09-29T00:20:33;98639.81;;;22.22;45.54
69221;BME280;56331;51.992;20.910;2022-09-29T00:23:00;98639.02;;;22.21;45.55
69221;BME280;56331;51.992;20.910;2022-09-29T00:25:26;98637.04;;;22.22;45.54
69221;BME280;56331;51.992;20.910;2022-09-29T00:27:53;98636.81;;;22.21;45.58
69221;BME280;56331;51.992;20.910;2022-09-29T00:30:19;98633.84;;;22.20;45.59
69221;BME280;56331;51.992;20.910;2022-09-29T00:32:45;98626.12;;;22.19;45.61
69221;BME280;56331;51.992;20.910;2022-09-29T00:35:11;98637.22;;;22.19;45.57
69221;BME280;56331;51.992;20.910;2022-09-29T00:37:38;98636.43;;;22.19;45.62
69221;BME280;56331;51.992;20.910;2022-09-29T00:40:06;98634.45;;;22.19;45.63
69221;BME280;56331;51.992;20.910;2022-09-29T00:42:32;98634.45;;;22.19;45.65
69221;BME280;56331;51.992;20.910;2022-09-29T00:45:15;98635.04;;;22.19;45.66
69221;BME280;56331;51.992;20.910;2022-09-29T00:47:42;98634.19;;;22.18;45.67
69221;BME280;56331;51.992;20.910;2022-09-29T00:51:17;98626.47;;;22.18;45.70
69221;BME280;56331;51.992;20.910;2022-09-29T00:52:56;98626.47;;;22.18;45.72
69221;BME280;56331;51.992;20.910;2022-09-29T00:55:33;98631.59;;;22.16;45.75
69221;BME280;56331;51.992;20.910;2022-09-29T00:58:05;98634.97;;;22.15;45.75
69221;BME280;56331;51.992;20.910;2022-09-29T01:00:31;98648.04;;;22.15;45.80
69221;BME280;56331;51.992;20.910;2022-09-29T01:03:24;98643.87;;;22.15;45.79
69221;BME280;56331;51.992;20.910;2022-09-29T01:05:34;98639.72;;;22.15;45.80
69221;BME280;56331;51.992;20.910;2022-09-29T01:08:08;98647.84;;;22.14;45.83
69221;BME280;56331;51.992;20.910;2022-09-29T01:10:33;98643.09;;;22.14;45.86
69221;BME280;56331;51.992;20.910;2022-09-29T01:13:00;98651.78;;;22.13;45.87
69221;BME280;56331;51.992;20.910;2022-09-29T01:15:27;98660.52;;;22.15;45.87
69221;BME280;56331;51.992;20.910;2022-09-29T01:17:54;98658.34;;;22.14;45.87
69221;BME280;56331;51.992;20.910;2022-09-29T01:20:22;98656.73;;;22.13;45.86
69221;BME280;56331;51.992;20.910;2022-09-29T01:23:19;98663.30;;;22.15;45.86
69221;BME280;56331;51.992;20.910;2022-09-29T01:25:49;98669.20;;;22.13;45.87
69221;BME280;56331;51.992;20.910;2022-09-29T01:28:23;98672.58;;;22.13;45.88
69221;BME280;56331;51.992;20.910;2022-09-29T01:31:11;98668.42;;;22.13;45.93
69221;BME280;56331;51.992;20.910;2022-09-29T01:41:35;98681.08;;;22.10;45.94
69221;BME280;56331;51.992;20.910;2022-09-29T01:44:22;98681.08;;;22.10;45.95
69221;BME280;56331;51.992;20.910;2022-09-29T01:46:55;98683.84;;;22.10;45.97
69221;BME280;56331;51.992;20.910;2022-09-29T01:49:23;98683.66;;;22.09;46.04
69221;BME280;56331;51.992;20.910;2022-09-29T01:51:54;98678.11;;;22.09;46.01
69221;BME280;56331;51.992;20.910;2022-09-29T01:54:27;98685.04;;;22.09;46.02
69221;BME280;56331;51.992;20.910;2022-09-29T01:56:57;98690.36;;;22.08;46.05
69221;BME280;56331;51.992;20.910;2022-09-29T01:59:27;98700.89;;;22.09;45.95
69221;BME280;56331;51.992;20.910;2022-09-29T02:01:55;98695.91;;;22.08;46.03
69221;BME280;56331;51.992;20.910;2022-09-29T02:04:29;98695.52;;;22.06;46.07
69221;BME280;56331;51.992;20.910;2022-09-29T02:07:06;98692.74;;;22.06;45.50
69221;BME280;56331;51.992;20.910;2022-09-29T02:09:37;98689.37;;;22.06;45.29
69221;BME280;56331;51.992;20.910;2022-09-29T02:12:03;98699.27;;;22.07;45.14
69221;BME280;56331;51.992;20.910;2022-09-29T02:14:34;98696.67;;;22.05;45.09
69221;BME280;56331;51.992;20.910;2022-09-29T02:17:07;98696.91;;;22.06;44.92
69221;BME280;56331;51.992;20.910;2022-09-29T02:19:36;98705.81;;;22.05;44.85
69221;BME280;56331;51.992;20.910;2022-09-29T02:22:03;98712.75;;;22.05;44.66
69221;BME280;56331;51.992;20.910;2022-09-29T02:24:30;98705.59;;;22.04;44.60
69221;BME280;56331;51.992;20.910;2022-09-29T02:26:57;98705.59;;;22.04;44.58
69221;BME280;56331;51.992;20.910;2022-09-29T02:29:24;98706.61;;;22.06;44.44
69221;BME280;56331;51.992;20.910;2022-09-29T02:31:50;98703.83;;;22.06;44.42
69221;BME280;56331;51.992;20.910;2022-09-29T02:34:18;98697.69;;;22.06;44.33
69221;BME280;56331;51.992;20.910;2022-09-29T02:53:31;98727.58;;;22.03;43.88
69221;BME280;56331;51.992;20.910;2022-09-29T02:58:52;98716.09;;;22.05;43.72
69221;BME280;56331;51.992;20.910;2022-09-29T03:01:18;98725.00;;;22.04;43.66
69221;BME280;56331;51.992;20.910;2022-09-29T03:03:44;98729.75;;;22.04;43.53
69221;BME280;56331;51.992;20.910;2022-09-29T03:06:12;98722.82;;;22.04;43.52
69221;BME280;56331;51.992;20.910;2022-09-29T03:08:38;98720.64;;;22.03;43.45
69221;BME280;56331;51.992;20.910;2022-09-29T03:11:05;98729.16;;;22.04;43.38
69221;BME280;56331;51.992;20.910;2022-09-29T03:13:31;98740.84;;;22.04;43.32
69221;BME280;56331;51.992;20.910;2022-09-29T03:15:58;98747.78;;;22.04;43.25
69221;BME280;56331;51.992;20.910;2022-09-29T03:18:24;98748.57;;;22.04;43.24
69221;BME280;56331;51.992;20.910;2022-09-29T03:20:52;98740.65;;;22.03;43.13
69221;BME280;56331;51.992;20.910;2022-09-29T03:23:20;98739.09;;;22.05;43.12
69221;BME280;56331;51.992;20.910;2022-09-29T03:25:46;98738.86;;;22.04;43.05
69221;BME280;56331;51.992;20.910;2022-09-29T03:28:12;98747.19;;;22.04;42.92
69221;BME280;56331;51.992;20.910;2022-09-29T03:30:41;98759.66;;;22.04;42.93
69221;BME280;56331;51.992;20.910;2022-09-29T03:33:07;98760.25;;;22.04;42.93
69221;BME280;56331;51.992;20.910;2022-09-29T03:35:34;98767.39;;;22.05;42.85
69221;BME280;56331;51.992;20.910;2022-09-29T03:38:00;98772.36;;;22.05;42.79
69221;BME280;56331;51.992;20.910;2022-09-29T03:40:27;98769.96;;;22.04;42.70
69221;BME280;56331;51.992;20.910;2022-09-29T03:42:54;98779.67;;;22.04;42.71
69221;BME280;56331;51.992;20.910;2022-09-29T03:45:20;98779.86;;;22.05;42.69
69221;BME280;56331;51.992;20.910;2022-09-29T03:47:47;98776.70;;;22.03;42.71
69221;BME280;56331;51.992;20.910;2022-09-29T03:50:13;98770.55;;;22.03;42.72
69221;BME280;56331;51.992;20.910;2022-09-29T03:52:39;98768.58;;;22.04;42.57
69221;BME280;56331;51.992;20.910;2022-09-29T03:55:07;98769.77;;;22.03;42.54
69221;BME280;56331;51.992;20.910;2022-09-29T03:57:33;98780.03;;;22.02;42.47
69221;BME280;56331;51.992;20.910;2022-09-29T04:00:00;98774.48;;;22.02;42.52
69221;BME280;56331;51.992;20.910;2022-09-29T04:02:26;98768.38;;;22.03;42.52
69221;BME280;56331;51.992;20.910;2022-09-29T04:04:53;98773.70;;;22.02;42.51
69221;BME280;56331;51.992;20.910;2022-09-29T04:07:19;98772.54;;;22.03;42.93
69221;BME280;56331;51.992;20.910;2022-09-29T04:09:46;98769.77;;;22.03;43.04
69221;BME280;56331;51.992;20.910;2022-09-29T04:12:12;98770.33;;;22.02;43.13
69221;BME280;56331;51.992;20.910;2022-09-29T04:14:38;98777.06;;;22.01;43.22
69221;BME280;56331;51.992;20.910;2022-09-29T04:17:05;98775.88;;;22.02;43.25
69221;BME280;56331;51.992;20.910;2022-09-29T04:19:34;98776.27;;;22.01;43.32
69221;BME280;56331;51.992;20.910;2022-09-29T04:22:00;98779.64;;;22.00;43.41
69221;BME280;56331;51.992;20.910;2022-09-29T04:24:27;98781.82;;;22.01;43.47
69221;BME280;56331;51.992;20.910;2022-09-29T04:26:53;98788.52;;;22.00;43.46
69221;BME280;56331;51.992;20.910;2022-09-29T04:29:19;98782.78;;;21.99;43.47
69221;BME280;56331;51.992;20.910;2022-09-29T04:31:45;98780.60;;;21.98;43.53
69221;BME280;56331;51.992;20.910;2022-09-29T04:34:12;98782.78;;;21.99;43.59
69221;BME280;56331;51.992;20.910;2022-09-29T04:36:38;98778.81;;;22.00;43.54
69221;BME280;56331;51.992;20.910;2022-09-29T04:39:05;98782.98;;;22.00;43.61
69221;BME280;56331;51.992;20.910;2022-09-29T04:41:31;98783.57;;;21.99;43.75
69221;BME280;56331;51.992;20.910;2022-09-29T04:44:00;98789.71;;;21.99;44.03
69221;BME280;56331;51.992;20.910;2022-09-29T04:46:27;98788.33;;;21.99;44.21
69221;BME280;56331;51.992;20.910;2022-09-29T04:48:54;98789.52;;;21.98;44.29
69221;BME280;56331;51.992;20.910;2022-09-29T04:51:20;98790.08;;;21.97;44.40
69221;BME280;56331;51.992;20.910;2022-09-29T04:53:46;98788.13;;;21.98;44.47
69221;BME280;56331;51.992;20.910;2022-09-29T04:56:13;98785.36;;;21.98;44.57
69221;BME280;56331;51.992;20.910;2022-09-29T04:58:39;98792.06;;;21.97;44.67
69221;BME280;56331;51.992;20.910;2022-09-29T05:01:10;98796.45;;;21.98;44.75
69221;BME280;56331;51.992;20.910;2022-09-29T05:03:39;98784.53;;;21.97;44.80
69221;BME280;56331;51.992;20.910;2022-09-29T05:06:06;98792.66;;;21.96;44.82
69221;BME280;56331;51.992;20.910;2022-09-29T05:08:34;98796.22;;;21.97;44.89
69221;BME280;56331;51.992;20.910;2022-09-29T05:11:07;98802.36;;;21.96;44.92
69221;BME280;56331;51.992;20.910;2022-09-29T05:13:35;98804.34;;;21.96;45.05
69221;BME280;56331;51.992;20.910;2022-09-29T05:16:02;98802.36;;;21.96;45.38
69221;BME280;56331;51.992;20.910;2022-09-29T05:18:29;98808.50;;;21.96;45.76
69221;BME280;56331;51.992;20.910;2022-09-29T05:21:00;98818.20;;;21.96;46.12
69221;BME280;56331;51.992;20.910;2022-09-29T05:23:24;98815.42;;;21.96;46.32
69221;BME280;56331;51.992;20.910;2022-09-29T05:25:50;98815.42;;;21.96;46.42
69221;BME280;56331;51.992;20.910;2022-09-29T05:28:16;98814.83;;;21.96;46.45
69221;BME280;56331;51.992;20.910;2022-09-29T05:30:42;98816.81;;;21.96;46.63
69221;BME280;56331;51.992;20.910;2022-09-29T05:33:09;98834.24;;;21.96;46.77
69221;BME280;56331;51.992;20.910;2022-09-29T05:35:35;98834.05;;;21.95;46.93
69221;BME280;56331;51.992;20.910;2022-09-29T05:38:02;98837.80;;;21.97;47.10
69221;BME280;56331;51.992;20.910;2022-09-29T05:40:28;98840.58;;;21.97;47.26
69221;BME280;56331;51.992;20.910;2022-09-29T05:42:57;98842.36;;;21.95;47.38
69221;BME280;56331;51.992;20.910;2022-09-29T05:45:25;98854.25;;;21.96;47.53
69221;BME280;56331;51.992;20.910;2022-09-29T05:47:51;98849.86;;;21.95;47.59
69221;BME280;56331;51.992;20.910;2022-09-29T05:50:18;98854.84;;;21.95;47.59
69221;BME280;56331;51.992;20.910;2022-09-29T05:52:44;98853.45;;;21.95;47.60
69221;BME280;56331;51.992;20.910;2022-09-29T05:55:12;98852.27;;;21.96;47.65
69221;BME280;56331;51.992;20.910;2022-09-29T05:57:38;98849.86;;;21.95;47.66
69221;BME280;56331;51.992;20.910;2022-09-29T06:00:05;98843.75;;;21.95;47.71
69221;BME280;56331;51.992;20.910;2022-09-29T06:02:33;98851.47;;;21.96;47.59
69221;BME280;56331;51.992;20.910;2022-09-29T06:04:59;98850.68;;;21.95;47.10
69221;BME280;56331;51.992;20.910;2022-09-29T06:07:26;98856.23;;;21.95;46.66
69221;BME280;56331;51.992;20.910;2022-09-29T06:09:52;98858.57;;;21.93;46.54
69221;BME280;56331;51.992;20.910;2022-09-29T06:12:18;98864.91;;;21.94;46.38
69221;BME280;56331;51.992;20.910;2022-09-29T06:14:44;98864.91;;;21.94;46.25
69221;BME280;56331;51.992;20.910;2022-09-29T06:17:11;98871.84;;;21.94;46.04
69221;BME280;56331;51.992;20.910;2022-09-29T06:19:37;98871.84;;;21.94;45.94
69221;BME280;56331;51.992;20.910;2022-09-29T06:22:04;98878.77;;;21.94;45.70
69221;BME280;56331;51.992;20.910;2022-09-29T06:24:30;98871.84;;;21.94;45.59
69221;BME280;56331;51.992;20.910;2022-09-29T06:26:57;98871.05;;;21.93;45.54
69221;BME280;56331;51.992;20.910;2022-09-29T06:29:23;98869.66;;;21.93;45.51
69221;BME280;56331;51.992;20.910;2022-09-29T06:31:49;98879.36;;;21.93;45.55
69221;BME280;56331;51.992;20.910;2022-09-29T06:34:16;98889.66;;;21.93;45.51
69221;BME280;56331;51.992;20.910;2022-09-29T06:36:43;98888.84;;;21.92;45.57
69221;BME280;56331;51.992;20.910;2022-09-29T06:39:29;98888.28;;;21.93;45.45
69221;BME280;56331;51.992;20.910;2022-09-29T06:41:55;98889.86;;;21.94;45.37
69221;BME280;56331;51.992;20.910;2022-09-29T06:44:26;98899.36;;;21.93;45.27
69221;BME280;56331;51.992;20.910;2022-09-29T06:46:56;98896.80;;;21.94;45.18
69221;BME280;56331;51.992;20.910;2022-09-29T06:49:23;98896.80;;;21.94;45.38
69221;BME280;56331;51.992;20.910;2022-09-29T06:51:50;98899.20;;;21.95;46.03
69221;BME280;56331;51.992;20.910;2022-09-29T06:54:18;98897.22;;;21.96;46.27
69221;BME280;56331;51.992;20.910;2022-09-29T06:56:48;98906.92;;;21.96;46.34
69221;BME280;56331;51.992;20.910;2022-09-29T06:59:15;98911.09;;;21.96;46.40
69221;BME280;56331;51.992;20.910;2022-09-29T07:01:42;98910.69;;;21.97;46.33
69221;BME280;56331;51.992;20.910;2022-09-29T07:04:08;98915.67;;;21.98;46.35
69221;BME280;56331;51.992;20.910;2022-09-29T07:06:35;98915.67;;;21.98;46.15
69221;BME280;56331;51.992;20.910;2022-09-29T07:09:02;98922.21;;;21.99;46.10
69221;BME280;56331;51.992;20.910;2022-09-29T07:11:28;98923.83;;;22.00;45.96
69221;BME280;56331;51.992;20.910;2022-09-29T07:13:55;98926.60;;;22.00;46.00
69221;BME280;56331;51.992;20.910;2022-09-29T07:16:21;98930.76;;;22.00;46.13
69221;BME280;56331;51.992;20.910;2022-09-29T07:18:48;98926.01;;;22.01;45.60
69221;BME280;56331;51.992;20.910;2022-09-29T07:21:15;98926.80;;;22.01;45.05
69221;BME280;56331;51.992;20.910;2022-09-29T07:23:43;98921.09;;;22.04;44.67
69221;BME280;56331;51.992;20.910;2022-09-29T07:26:11;98924.30;;;22.06;44.51
69221;BME280;56331;51.992;20.910;2022-09-29T07:28:38;98925.87;;;22.07;44.48
69221;BME280;56331;51.992;20.910;2022-09-29T07:31:23;98924.48;;;22.07;44.48
69221;BME280;56331;51.992;20.910;2022-09-29T07:33:36;98937.17;;;22.08;44.69
69221;BME280;56331;51.992;20.910;2022-09-29T07:36:03;98934.63;;;22.09;44.79
69221;BME280;56331;51.992;20.910;2022-09-29T07:38:30;98943.14;;;22.10;44.75
69221;BME280;56331;51.992;20.910;2022-09-29T07:41:03;98941.16;;;22.11;44.77
69221;BME280;56331;51.992;20.910;2022-09-29T07:43:29;98947.53;;;22.11;44.63
69221;BME280;56331;51.992;20.910;2022-09-29T07:45:56;98949.87;;;22.09;44.53
69221;BME280;56331;51.992;20.910;2022-09-29T07:48:22;98948.09;;;22.11;44.30
69221;BME280;56331;51.992;20.910;2022-09-29T07:50:48;98950.51;;;22.12;44.15
69221;BME280;56331;51.992;20.910;2022-09-29T07:53:15;98944.96;;;22.12;43.92
69221;BME280;56331;51.992;20.910;2022-09-29T07:55:41;98947.14;;;22.13;43.79
69221;BME280;56331;51.992;20.910;2022-09-29T07:58:07;98950.14;;;22.14;43.71
69221;BME280;56331;51.992;20.910;2022-09-29T08:00:34;98955.69;;;22.14;43.58
69221;BME280;56331;51.992;20.910;2022-09-29T08:03:03;98958.66;;;22.15;43.52
69221;BME280;56331;51.992;20.910;2022-09-29T08:05:30;98954.70;;;22.16;43.71
69221;BME280;56331;51.992;20.910;2022-09-29T08:08:03;98960.25;;;22.16;43.79
69221;BME280;56331;51.992;20.910;2022-09-29T08:10:31;98958.30;;;22.16;43.93
69221;BME280;56331;51.992;20.910;2022-09-29T08:12:58;98967.61;;;22.18;44.08
69221;BME280;56331;51.992;20.910;2022-09-29T08:15:25;98968.01;;;22.16;44.22
69221;BME280;56331;51.992;20.910;2022-09-29T08:17:52;98968.20;;;22.17;44.37
69221;BME280;56331;51.992;20.910;2022-09-29T08:20:21;98969.00;;;22.18;44.51
69221;BME280;56331;51.992;20.910;2022-09-29T08:22:48;98969.80;;;22.18;44.64
69221;BME280;56331;51.992;20.910;2022-09-29T08:25:15;98976.73;;;22.18;44.75
69221;BME280;56331;51.992;20.910;2022-09-29T08:27:42;98975.34;;;22.18;44.84
69221;BME280;56331;51.992;20.910;2022-09-29T08:30:09;98974.22;;;22.19;44.90
69221;BME280;56331;51.992;20.910;2022-09-29T08:32:36;98976.03;;;22.21;44.75
69221;BME280;56331;51.992;20.910;2022-09-29T08:35:05;98974.42;;;22.20;44.63
69221;BME280;56331;51.992;20.910;2022-09-29T08:37:32;98977.98;;;22.21;44.76
69221;BME280;56331;51.992;20.910;2022-09-29T08:39:58;98980.55;;;22.20;44.72
69221;BME280;56331;51.992;20.910;2022-09-29T08:45:24;98988.28;;;22.20;44.57
69221;BME280;56331;51.992;20.910;2022-09-29T08:47:48;98997.80;;;22.19;44.75
69221;BME280;56331;51.992;20.910;2022-09-29T08:50:16;99001.16;;;22.19;44.98
69221;BME280;56331;51.992;20.910;2022-09-29T08:52:47;99004.06;;;22.16;45.14
69221;BME280;56331;51.992;20.910;2022-09-29T08:57:59;99001.95;;;22.19;45.45
69221;BME280;56331;51.992;20.910;2022-09-29T09:00:50;99004.92;;;22.20;45.49
69221;BME280;56331;51.992;20.910;2022-09-29T09:03:02;99005.72;;;22.21;45.61
69221;BME280;56331;51.992;20.910;2022-09-29T09:22:24;99017.67;;;22.25;46.10
69221;BME280;56331;51.992;20.910;2022-09-29T09:25:00;99014.11;;;22.24;46.25
69221;BME280;56331;51.992;20.910;2022-09-29T09:27:36;99020.66;;;22.26;46.36
69221;BME280;56331;51.992;20.910;2022-09-29T09:30:05;99018.14;;;22.31;42.58
69221;BME280;56331;51.992;20.910;2022-09-29T09:32:34;99016.45;;;22.22;41.77
69221;BME280;56331;51.992;20.910;2022-09-29T09:36:05;99017.27;;;22.13;42.81
69221;BME280;56331;51.992;20.910;2022-09-29T09:37:41;99021.44;;;22.13;43.41
69221;BME280;56331;51.992;20.910;2022-09-29T09:40:23;99025.03;;;22.14;43.50
69221;BME280;56331;51.992;20.910;2022-09-29T09:43:04;99022.45;;;22.15;43.47
69221;BME280;56331;51.992;20.910;2022-09-29T09:45:38;99029.59;;;22.16;43.45
69221;BME280;56331;51.992;20.910;2022-09-29T09:50:55;99033.85;;;22.19;43.45
69221;BME280;56331;51.992;20.910;2022-09-29T09:53:35;99038.21;;;22.20;43.58
69221;BME280;56331;51.992;20.910;2022-09-29T09:56:14;99031.71;;;22.22;43.61
69221;BME280;56331;51.992;20.910;2022-09-29T09:59:02;99041.62;;;22.23;43.92
69221;BME280;56331;51.992;20.910;2022-09-29T10:01:26;99040.50;;;22.28;40.34
69221;BME280;56331;51.992;20.910;2022-09-29T10:03:53;99034.51;;;22.13;39.89
69221;BME280;56331;51.992;20.910;2022-09-29T10:06:20;99041.84;;;21.98;40.43
69221;BME280;56331;51.992;20.910;2022-09-29T10:08:46;99047.47;;;21.92;41.08
69221;BME280;56331;51.992;20.910;2022-09-29T10:11:24;99050.88;;;21.95;39.96
69221;BME280;56331;51.992;20.910;2022-09-29T10:13:57;99055.51;;;21.87;39.24
69221;BME280;56331;51.992;20.910;2022-09-29T10:16:37;99059.02;;;21.71;40.13
69221;BME280;56331;51.992;20.910;2022-09-29T10:19:00;99061.74;;;21.67;40.76
69221;BME280;56331;51.992;20.910;2022-09-29T10:21:43;99069.11;;;21.69;41.23
69221;BME280;56331;51.992;20.910;2022-09-29T10:24:31;99067.41;;;21.74;41.39
69221;BME280;56331;51.992;20.910;2022-09-29T10:26:53;99069.05;;;21.79;41.38
69221;BME280;56331;51.992;20.910;2022-09-29T10:29:28;99064.37;;;21.83;41.50
69221;BME280;56331;51.992;20.910;2022-09-29T10:32:24;99067.42;;;21.88;41.54
69221;BME280;56331;51.992;20.910;2022-09-29T10:34:29;99063.31;;;21.91;41.42
69221;BME280;56331;51.992;20.910;2022-09-29T10:37:05;99063.16;;;21.94;42.10
69221;BME280;56331;51.992;20.910;2022-09-29T10:39:41;99065.17;;;21.97;42.26
69221;BME280;56331;51.992;20.910;2022-09-29T10:42:22;99063.42;;;21.98;42.27
69221;BME280;56331;51.992;20.910;2022-09-29T10:44:51;99068.22;;;22.01;42.41
69221;BME280;56331;51.992;20.910;2022-09-29T10:47:20;99074.20;;;22.03;42.44
69221;BME280;56331;51.992;20.910;2022-09-29T10:49:47;99073.81;;;22.05;42.44
69221;BME280;56331;51.992;20.910;2022-09-29T10:52:25;99072.66;;;22.06;42.63
69221;BME280;56331;51.992;20.910;2022-09-29T10:54:56;99072.66;;;22.06;42.70
69221;BME280;56331;51.992;20.910;2022-09-29T10:57:27;99069.49;;;22.07;42.82
69221;BME280;56331;51.992;20.910;2022-09-29T10:59:56;99076.42;;;22.07;42.83
69221;BME280;56331;51.992;20.910;2022-09-29T11:02:36;99073.66;;;22.07;42.90
69221;BME280;56331;51.992;20.910;2022-09-29T11:05:02;99080.81;;;22.09;42.97
69221;BME280;56331;51.992;20.910;2022-09-29T11:07:29;99084.00;;;22.11;43.02
69221;BME280;56331;51.992;20.910;2022-09-29T11:09:57;99079.04;;;22.10;43.25
69221;BME280;56331;51.992;20.910;2022-09-29T11:12:35;99083.84;;;22.13;43.57
69221;BME280;56331;51.992;20.910;2022-09-29T11:15:23;99087.84;;;22.16;43.77
69221;BME280;56331;51.992;20.910;2022-09-29T11:17:51;99088.27;;;22.18;43.83
69221;BME280;56331;51.992;20.910;2022-09-29T11:20:19;99087.94;;;22.19;43.96
69221;BME280;56331;51.992;20.910;2022-09-29T11:23:08;99076.45;;;22.21;44.00
69221;BME280;56331;51.992;20.910;2022-09-29T11:25:47;99087.19;;;22.22;44.04
69221;BME280;56331;51.992;20.910;2022-09-29T11:31:21;99096.38;;;22.26;43.98
69221;BME280;56331;51.992;20.910;2022-09-29T11:36:49;99090.59;;;22.25;43.84
69221;BME280;56331;51.992;20.910;2022-09-29T11:39:27;99100.30;;;22.25;43.64
69221;BME280;56331;51.992;20.910;2022-09-29T11:55:26;99086.98;;;22.21;43.80
69221;BME280;56331;51.992;20.910;2022-09-29T12:03:22;99091.78;;;22.24;44.74
69221;BME280;56331;51.992;20.910;2022-09-29T12:06:12;99089.44;;;22.26;44.98
69221;BME280;56331;51.992;20.910;2022-09-29T12:11:54;99101.53;;;22.28;44.90
69221;BME280;56331;51.992;20.910;2022-09-29T12:14:44;99096.78;;;22.28;44.56
69221;BME280;56331;51.992;20.910;2022-09-29T12:17:11;99100.73;;;22.27;43.99
69221;BME280;56331;51.992;20.910;2022-09-29T12:19:40;99105.49;;;22.27;44.12
69221;BME280;56331;51.992;20.910;2022-09-29T12:22:10;99107.08;;;22.28;44.33
69221;BME280;56331;51.992;20.910;2022-09-29T12:24:41;99113.42;;;22.28;44.49
69221;BME280;56331;51.992;20.910;2022-09-29T12:27:18;99112.04;;;22.28;44.43
69221;BME280;56331;51.992;20.910;2022-09-29T12:29:52;99119.13;;;22.26;44.26
69221;BME280;56331;51.992;20.910;2022-09-29T12:32:39;99115.41;;;22.28;44.20
69221;BME280;56331;51.992;20.910;2022-09-29T12:35:10;99117.23;;;22.30;43.72
69221;BME280;56331;51.992;20.910;2022-09-29T12:40:21;99123.37;;;22.30;43.57
69221;BME280;56331;51.992;20.910;2022-09-29T12:48:13;99127.53;;;22.30;44.04
69221;BME280;56331;51.992;20.910;2022-09-29T12:50:43;99129.91;;;22.31;44.06
69221;BME280;56331;51.992;20.910;2022-09-29T12:53:24;99125.39;;;22.33;44.04
69221;BME280;56331;51.992;20.910;2022-09-29T12:58:18;99125.59;;;22.34;43.96
69221;BME280;56331;51.992;20.910;2022-09-29T13:00:44;99126.62;;;22.35;43.98
69221;BME280;56331;51.992;20.910;2022-09-29T13:09:06;99122.06;;;22.37;44.25
69221;BME280;56331;51.992;20.910;2022-09-29T13:11:40;99131.62;;;22.39;44.16
69221;BME280;56331;51.992;20.910;2022-09-29T13:14:32;99130.03;;;22.38;44.00
69221;BME280;56331;51.992;20.910;2022-09-29T13:19:50;99130.98;;;22.36;43.87
69221;BME280;56331;51.992;20.910;2022-09-29T13:22:40;99131.57;;;22.36;43.96
69221;BME280;56331;51.992;20.910;2022-09-29T13:27:46;99139.90;;;22.36;44.07
69221;BME280;56331;51.992;20.910;2022-09-29T13:30:20;99139.53;;;22.37;44.28
69221;BME280;56331;51.992;20.910;2022-09-29T13:32:59;99139.73;;;22.38;44.52
69221;BME280;56331;51.992;20.910;2022-09-29T13:35:24;99137.40;;;22.40;44.86
69221;BME280;56331;51.992;20.910;2022-09-29T13:38:05;99151.70;;;22.42;45.05
69221;BME280;56331;51.992;20.910;2022-09-29T13:40:30;99155.70;;;22.45;45.06
69221;BME280;56331;51.992;20.910;2022-09-29T13:43:01;99146.98;;;22.46;45.03
69221;BME280;56331;51.992;20.910;2022-09-29T13:48:02;99163.48;;;22.49;45.12
69221;BME280;56331;51.992;20.910;2022-09-29T13:53:25;99177.20;;;22.52;45.14
69221;BME280;56331;51.992;20.910;2022-09-29T13:56:08;99174.42;;;22.52;45.44
69221;BME280;56331;51.992;20.910;2022-09-29T14:01:11;99172.67;;;22.53;45.10
69221;BME280;56331;51.992;20.910;2022-09-29T14:03:44;99181.00;;;22.53;45.04
69221;BME280;56331;51.992;20.910;2022-09-29T14:11:38;99178.38;;;22.50;44.83
69221;BME280;56331;51.992;20.910;2022-09-29T14:14:05;99174.38;;;22.48;44.81
69221;BME280;56331;51.992;20.910;2022-09-29T14:16:36;99170.97;;;22.45;44.79
69221;BME280;56331;51.992;20.910;2022-09-29T14:21:55;99173.35;;;22.46;44.63
69221;BME280;56331;51.992;20.910;2022-09-29T14:35:19;99191.50;;;22.40;43.97
69221;BME280;56331;51.992;20.910;2022-09-29T14:37:49;99188.50;;;22.39;43.55
69221;BME280;56331;51.992;20.910;2022-09-29T14:40:16;99187.70;;;22.39;43.31
69221;BME280;56331;51.992;20.910;2022-09-29T14:48:33;99187.27;;;22.37;42.63
69221;BME280;56331;51.992;20.910;2022-09-29T14:51:25;99186.27;;;22.35;42.43
69221;BME280;56331;51.992;20.910;2022-09-29T15:00:40;99195.75;;;22.34;42.56
69221;BME280;56331;51.992;20.910;2022-09-29T15:02:31;99193.36;;;22.33;42.49
69221;BME280;56331;51.992;20.910;2022-09-29T15:04:59;99206.28;;;22.35;42.32
69221;BME280;56331;51.992;20.910;2022-09-29T15:07:27;99211.83;;;22.35;42.41
69221;BME280;56331;51.992;20.910;2022-09-29T15:09:58;99206.64;;;22.33;43.15
69221;BME280;56331;51.992;20.910;2022-09-29T15:12:30;99213.22;;;22.35;44.46
69221;BME280;56331;51.992;20.910;2022-09-29T15:14:57;99213.63;;;22.37;44.93
69221;BME280;56331;51.992;20.910;2022-09-29T15:17:48;99219.17;;;22.37;44.02
69221;BME280;56331;51.992;20.910;2022-09-29T15:20:26;99215.84;;;22.37;43.60
69221;BME280;56331;51.992;20.910;2022-09-29T15:23:23;99230.27;;;22.37;43.29
69221;BME280;56331;51.992;20.910;2022-09-29T15:25:44;99234.83;;;22.35;43.29